Time;durP1;ratioP1;P1;durP2;ratioP2;P2;SDS_P1;SDS_P2;PMS_P1;PMS_P2;Temp;Humidity;BMP_temperature;BMP_pressure;BME280_temperature;BME280_humidity;BME280_pressure;Samples;Min_cycle;Max_cycle;Signal;HPM_P1;HPM_P2
2022/07/21 00:01:27;;;;;;;6.18;4.90;;;;;;;;;;5050767;28;20336;-74
2022/07/21 00:03:52;;;;;;;7.18;4.85;;;;;;;;;;5050838;28;20059;-73
2022/07/21 00:06:18;;;;;;;7.47;5.10;;;;;;;;;;5049748;28;20029;-74
2022/07/21 00:08:43;;;;;;;5.43;4.45;;;;;;;;;;5049787;28;20028;-74
2022/07/21 00:11:08;;;;;;;5.70;4.80;;;;;;;;;;5050579;28;20052;-74
2022/07/21 00:13:34;;;;;;;5.47;4.72;;;;;;;;;;5050358;28;20024;-74
2022/07/21 00:15:59;;;;;;;5.25;4.72;;;;;;;;;;5049577;28;20035;-74
2022/07/21 00:18:28;;;;;;;5.40;4.72;;;;;;;;;;5050276;28;20036;-74
2022/07/21 00:20:56;;;;;;;5.10;4.60;;;;;;;;;;5050336;28;20090;-74
2022/07/21 00:23:23;;;;;;;5.00;4.40;;;;;;;;;;5050313;28;20039;-73
2022/07/21 00:25:49;;;;;;;5.80;4.60;;;;;;;;;;5048503;28;20036;-74
2022/07/21 00:28:14;;;;;;;5.45;4.57;;;;;;;;;;5050016;28;20029;-74
2022/07/21 00:30:39;;;;;;;7.22;4.47;;;;;;;;;;5050239;28;20033;-75
2022/07/21 00:33:05;;;;;;;6.68;4.80;;;;;;;;;;5050238;28;20386;-75
2022/07/21 00:35:30;;;;;;;5.18;4.68;;;;;;;;;;5049439;28;20049;-73
2022/07/21 00:37:55;;;;;;;8.70;4.93;;;;;;;;;;5050012;28;20036;-75
2022/07/21 00:40:21;;;;;;;6.35;4.82;;;;;;;;;;5050260;28;20076;-72
2022/07/21 00:42:46;;;;;;;5.45;4.57;;;;;;;;;;5050001;28;20067;-76
2022/07/21 00:45:12;;;;;;;5.10;4.57;;;;;;;;;;5049186;28;20056;-74
2022/07/21 00:47:37;;;;;;;6.22;4.85;;;;;;;;;;5041673;28;20085;-74
2022/07/21 00:50:07;;;;;;;5.80;4.93;;;;;;;;;;5048245;28;20035;-75
2022/07/21 00:52:32;;;;;;;5.57;4.57;;;;;;;;;;5049094;28;20153;-74
2022/07/21 00:54:58;;;;;;;7.07;4.93;;;;;;;;;;5048679;28;20534;-74
2022/07/21 00:57:23;;;;;;;5.93;4.63;;;;;;;;;;5049593;28;20021;-73
2022/07/21 00:59:49;;;;;;;5.70;5.20;;;;;;;;;;5049492;28;20120;-74
2022/07/21 01:02:14;;;;;;;6.47;5.05;;;;;;;;;;5049293;28;20418;-74
2022/07/21 01:04:40;;;;;;;7.03;6.03;;;;;;;;;;5049662;28;20390;-75
2022/07/21 01:07:06;;;;;;;5.72;4.80;;;;;;;;;;5048612;28;20391;-75
2022/07/21 01:09:32;;;;;;;5.97;4.68;;;;;;;;;;5049298;28;20035;-74
2022/07/21 01:11:58;;;;;;;5.68;5.07;;;;;;;;;;5049411;28;20033;-74
2022/07/21 01:14:24;;;;;;;4.90;4.45;;;;;;;;;;5048903;28;20036;-75
2022/07/21 01:16:50;;;;;;;6.82;5.00;;;;;;;;;;5048584;28;20086;-74
2022/07/21 01:19:16;;;;;;;8.18;4.93;;;;;;;;;;5048386;28;20314;-74
2022/07/21 01:21:44;;;;;;;6.78;5.57;;;;;;;;;;5049036;28;20020;-74
2022/07/21 01:24:09;;;;;;;7.47;5.60;;;;;;;;;;5048073;28;20032;-73
2022/07/21 01:26:43;;;;;;;8.38;5.72;;;;;;;;;;5048925;28;20036;-74
2022/07/21 01:29:10;;;;;;;6.07;5.32;;;;;;;;;;5048985;28;20501;-73
2022/07/21 01:31:36;;;;;;;7.47;5.18;;;;;;;;;;5049097;28;20060;-74
2022/07/21 01:34:02;;;;;;;5.82;5.18;;;;;;;;;;5048156;28;20028;-73
2022/07/21 01:36:27;;;;;;;7.47;5.18;;;;;;;;;;5048424;28;20427;-74
2022/07/21 01:41:36;;;;;;;6.18;5.30;;;;;;;;;;5048811;28;20403;-74
2022/07/21 01:44:08;;;;;;;7.57;5.80;;;;;;;;;;5047738;28;20033;-74
2022/07/21 01:46:36;;;;;;;7.97;5.80;;;;;;;;;;5047642;28;20116;-74
2022/07/21 01:49:02;;;;;;;6.15;5.55;;;;;;;;;;5048318;28;20110;-74
2022/07/21 01:51:28;;;;;;;7.32;5.20;;;;;;;;;;5048882;28;20067;-74
2022/07/21 01:53:53;;;;;;;8.90;5.50;;;;;;;;;;5030543;28;20034;-76
2022/07/21 01:56:21;;;;;;;8.00;5.88;;;;;;;;;;5049160;28;20039;-75
2022/07/21 01:58:47;;;;;;;6.32;5.63;;;;;;;;;;5047624;28;20032;-73
2022/07/21 02:01:15;;;;;;;6.25;5.65;;;;;;;;;;5048404;28;20025;-74
2022/07/21 02:03:40;;;;;;;6.82;6.07;;;;;;;;;;5047026;28;20029;-75
2022/07/21 02:06:07;;;;;;;8.13;6.43;;;;;;;;;;5048441;28;20040;-75
2022/07/21 02:08:32;;;;;;;7.32;6.15;;;;;;;;;;5047281;28;20067;-76
2022/07/21 02:10:58;;;;;;;7.72;6.30;;;;;;;;;;5048450;28;20044;-75
2022/07/21 02:13:23;;;;;;;8.93;6.10;;;;;;;;;;5046966;28;20076;-75
2022/07/21 02:15:49;;;;;;;6.60;5.75;;;;;;;;;;5047791;28;20083;-74
2022/07/21 02:18:14;;;;;;;6.50;5.80;;;;;;;;;;5048135;28;20082;-74
2022/07/21 02:20:39;;;;;;;9.45;6.28;;;;;;;;;;5048262;28;20029;-74
2022/07/21 02:23:04;;;;;;;6.90;5.78;;;;;;;;;;5047300;28;20037;-74
2022/07/21 02:25:30;;;;;;;7.50;6.43;;;;;;;;;;5048136;28;20027;-76
2022/07/21 02:27:55;;;;;;;7.72;6.10;;;;;;;;;;5046720;28;20028;-74
2022/07/21 02:30:20;;;;;;;7.50;6.30;;;;;;;;;;5046758;28;20304;-74
2022/07/21 02:32:46;;;;;;;7.40;6.47;;;;;;;;;;5046814;28;20067;-75
2022/07/21 02:35:11;;;;;;;7.30;6.22;;;;;;;;;;5048083;28;20029;-74
2022/07/21 02:41:08;;;;;;;7.82;6.25;;;;;;;;;;5043778;28;20575;-76
2022/07/21 02:43:33;;;;;;;9.30;6.78;;;;;;;;;;5047647;28;20413;-74
2022/07/21 02:45:59;;;;;;;6.85;6.15;;;;;;;;;;5047939;28;20036;-74
2022/07/21 02:48:24;;;;;;;9.27;6.40;;;;;;;;;;5047729;28;20032;-75
2022/07/21 02:50:49;;;;;;;8.75;6.20;;;;;;;;;;5047757;28;20124;-74
2022/07/21 02:53:18;;;;;;;9.55;6.72;;;;;;;;;;5046236;28;20044;-75
2022/07/21 02:55:44;;;;;;;8.68;6.68;;;;;;;;;;5047235;28;20276;-75
2022/07/21 02:58:17;;;;;;;6.70;5.97;;;;;;;;;;5047412;28;20031;-74
2022/07/21 03:00:57;;;;;;;7.65;6.18;;;;;;;;;;5047683;28;20076;-74
2022/07/21 03:03:25;;;;;;;8.57;6.55;;;;;;;;;;5046736;28;20041;-75
2022/07/21 03:05:50;;;;;;;8.38;6.68;;;;;;;;;;5047671;28;20024;-74
2022/07/21 03:08:17;;;;;;;10.20;6.50;;;;;;;;;;5046650;28;20370;-74
2022/07/21 03:10:42;;;;;;;8.45;6.85;;;;;;;;;;5047541;28;20237;-74
2022/07/21 03:13:08;;;;;;;9.02;6.55;;;;;;;;;;5046011;28;20021;-74
2022/07/21 03:15:33;;;;;;;7.15;6.00;;;;;;;;;;5046165;28;20497;-75
2022/07/21 03:17:59;;;;;;;8.82;6.10;;;;;;;;;;5047293;28;20029;-74
2022/07/21 03:20:25;;;;;;;7.78;6.45;;;;;;;;;;5047912;28;20081;-74
2022/07/21 03:22:50;;;;;;;8.60;6.95;;;;;;;;;;5046696;28;20032;-74
2022/07/21 03:25:16;;;;;;;7.50;6.55;;;;;;;;;;5046981;28;20033;-74
2022/07/21 03:27:42;;;;;;;7.43;6.50;;;;;;;;;;5051525;28;20498;-74
2022/07/21 03:30:08;;;;;;;7.78;6.90;;;;;;;;;;5049905;28;20037;-74
2022/07/21 03:32:34;;;;;;;9.60;6.60;;;;;;;;;;5051135;28;20017;-74
2022/07/21 03:35:00;;;;;;;8.07;6.55;;;;;;;;;;5050203;28;20036;-75
2022/07/21 03:37:25;;;;;;;9.05;6.90;;;;;;;;;;5050263;28;20033;-75
2022/07/21 03:39:51;;;;;;;9.27;7.30;;;;;;;;;;5050802;28;20029;-74
2022/07/21 03:42:16;;;;;;;7.72;6.50;;;;;;;;;;5051136;28;20087;-74
2022/07/21 03:44:42;;;;;;;7.38;6.68;;;;;;;;;;5049345;28;20040;-74
2022/07/21 03:47:07;;;;;;;8.07;6.65;;;;;;;;;;5051001;28;20383;-74
2022/07/21 03:49:32;;;;;;;8.52;6.88;;;;;;;;;;5050744;28;20029;-74
2022/07/21 03:51:57;;;;;;;9.45;6.90;;;;;;;;;;5051024;28;20048;-74
2022/07/21 03:54:23;;;;;;;9.02;6.95;;;;;;;;;;5049950;28;20052;-75
2022/07/21 03:56:48;;;;;;;7.78;6.68;;;;;;;;;;5050762;28;20493;-74
2022/07/21 03:59:13;;;;;;;9.15;6.90;;;;;;;;;;5050711;28;20021;-74
2022/07/21 04:01:38;;;;;;;10.15;7.45;;;;;;;;;;5050670;28;20031;-75
2022/07/21 04:04:04;;;;;;;7.88;6.63;;;;;;;;;;5049341;28;20032;-74
2022/07/21 04:06:29;;;;;;;7.75;6.60;;;;;;;;;;5050528;28;20311;-75
2022/07/21 04:08:54;;;;;;;8.52;7.20;;;;;;;;;;5050465;28;20444;-73
2022/07/21 04:11:19;;;;;;;7.80;6.80;;;;;;;;;;5050716;28;20029;-74
2022/07/21 04:13:45;;;;;;;9.77;6.65;;;;;;;;;;5049804;28;20053;-75
2022/07/21 04:16:10;;;;;;;8.40;6.10;;;;;;;;;;5050358;28;20024;-75
2022/07/21 04:18:35;;;;;;;7.32;6.53;;;;;;;;;;5050363;28;20470;-74
2022/07/21 04:21:01;;;;;;;9.63;6.57;;;;;;;;;;5048584;28;20044;-74
2022/07/21 04:23:26;;;;;;;8.23;6.63;;;;;;;;;;5050284;28;20021;-74
2022/07/21 04:25:51;;;;;;;8.32;6.75;;;;;;;;;;5050491;28;20552;-75
2022/07/21 04:28:16;;;;;;;8.15;6.25;;;;;;;;;;5032096;28;20551;-74
2022/07/21 04:30:42;;;;;;;9.07;6.57;;;;;;;;;;5049100;28;20025;-75
2022/07/21 04:33:07;;;;;;;7.55;6.15;;;;;;;;;;5047334;28;20104;-75
2022/07/21 04:35:32;;;;;;;7.97;6.35;;;;;;;;;;5040297;28;20033;-74
2022/07/21 04:37:58;;;;;;;7.90;6.10;;;;;;;;;;5049267;28;20672;-74
2022/07/21 04:40:23;;;;;;;8.82;6.55;;;;;;;;;;5050349;28;20063;-74
2022/07/21 04:42:48;;;;;;;7.30;6.35;;;;;;;;;;5048880;28;20065;-75
2022/07/21 04:45:15;;;;;;;6.75;5.80;;;;;;;;;;5049788;28;20063;-74
2022/07/21 04:47:47;;;;;;;8.40;6.15;;;;;;;;;;5050114;28;20498;-74
2022/07/21 04:50:14;;;;;;;7.35;5.80;;;;;;;;;;5048874;28;20032;-75
2022/07/21 04:52:40;;;;;;;10.45;6.38;;;;;;;;;;5042525;28;20029;-75
2022/07/21 04:55:05;;;;;;;7.25;5.95;;;;;;;;;;5047698;28;20043;-75
2022/07/21 04:57:31;;;;;;;8.02;6.68;;;;;;;;;;5049470;28;20025;-75
2022/07/21 04:59:56;;;;;;;9.27;6.15;;;;;;;;;;5049383;28;20032;-76
2022/07/21 05:02:21;;;;;;;8.45;6.72;;;;;;;;;;5047878;28;20043;-74
2022/07/21 05:04:46;;;;;;;8.93;6.65;;;;;;;;;;5048665;28;20382;-75
2022/07/21 05:07:12;;;;;;;7.20;6.50;;;;;;;;;;5049796;28;20029;-75
2022/07/21 05:09:37;;;;;;;10.52;7.00;;;;;;;;;;5049224;28;20086;-74
2022/07/21 05:12:03;;;;;;;7.40;6.30;;;;;;;;;;5048612;28;20036;-76
2022/07/21 05:14:28;;;;;;;8.57;7.15;;;;;;;;;;5048588;28;20707;-75
2022/07/21 05:16:53;;;;;;;9.23;7.25;;;;;;;;;;5049546;28;20123;-74
2022/07/21 05:19:19;;;;;;;8.98;7.15;;;;;;;;;;5048797;28;20031;-74
2022/07/21 05:21:45;;;;;;;9.15;7.35;;;;;;;;;;5045857;28;20024;-75
2022/07/21 05:24:10;;;;;;;10.80;7.80;;;;;;;;;;5049033;28;20029;-75
2022/07/21 05:26:36;;;;;;;9.02;7.88;;;;;;;;;;5047457;28;20033;-75
2022/07/21 05:29:02;;;;;;;9.82;7.15;;;;;;;;;;5057080;28;20024;-74
2022/07/21 05:31:28;;;;;;;10.73;7.40;;;;;;;;;;5044408;28;20033;-74
2022/07/21 05:33:53;;;;;;;10.20;7.43;;;;;;;;;;5052414;28;20020;-75
2022/07/21 05:36:18;;;;;;;9.05;7.68;;;;;;;;;;5047965;28;20392;-74
2022/07/21 05:38:44;;;;;;;9.13;7.18;;;;;;;;;;5047772;28;20024;-75
2022/07/21 05:41:09;;;;;;;9.77;7.70;;;;;;;;;;5052649;28;20031;-75
2022/07/21 05:43:34;;;;;;;10.52;7.20;;;;;;;;;;5047196;28;20487;-74
2022/07/21 05:46:00;;;;;;;11.80;7.20;;;;;;;;;;5047908;28;20024;-75
2022/07/21 05:48:25;;;;;;;11.55;7.30;;;;;;;;;;5045478;28;20027;-74
2022/07/21 05:50:50;;;;;;;11.75;7.75;;;;;;;;;;5048016;28;20067;-75
2022/07/21 05:53:16;;;;;;;8.30;6.68;;;;;;;;;;5048448;28;20029;-74
2022/07/21 05:55:41;;;;;;;10.25;7.40;;;;;;;;;;5054380;28;20024;-77
2022/07/21 05:58:06;;;;;;;11.02;7.13;;;;;;;;;;5068328;28;20093;-74
2022/07/21 06:00:32;;;;;;;10.70;7.35;;;;;;;;;;5048212;28;20086;-75
2022/07/21 06:02:57;;;;;;;10.60;7.45;;;;;;;;;;5047819;28;20494;-74
2022/07/21 06:05:22;;;;;;;9.85;7.22;;;;;;;;;;5044977;28;20025;-72
2022/07/21 06:07:48;;;;;;;8.68;7.18;;;;;;;;;;5043784;28;20449;-73
2022/07/21 06:10:14;;;;;;;9.07;6.90;;;;;;;;;;5044950;28;20029;-73
2022/07/21 06:12:39;;;;;;;7.93;7.10;;;;;;;;;;5047199;28;20090;-72
2022/07/21 06:15:05;;;;;;;8.70;7.07;;;;;;;;;;5046497;28;20032;-74
2022/07/21 06:17:32;;;;;;;7.80;6.90;;;;;;;;;;5030722;28;20564;-72
2022/07/21 06:19:58;;;;;;;9.38;7.03;;;;;;;;;;5031735;28;20066;-73
2022/07/21 06:22:24;;;;;;;8.27;7.05;;;;;;;;;;5040382;28;20112;-73
2022/07/21 06:24:49;;;;;;;9.10;7.63;;;;;;;;;;5036221;28;20036;-74
2022/07/21 06:27:14;;;;;;;8.35;6.65;;;;;;;;;;5045069;28;20040;-74
2022/07/21 06:29:40;;;;;;;8.45;7.03;;;;;;;;;;5038576;28;20463;-75
2022/07/21 06:32:05;;;;;;;8.45;7.15;;;;;;;;;;5038872;28;20036;-74
2022/07/21 06:34:30;;;;;;;8.15;7.22;;;;;;;;;;5041765;28;20029;-74
2022/07/21 06:36:55;;;;;;;8.53;7.37;;;;;;;;;;5038003;28;20025;-74
2022/07/21 06:39:21;;;;;;;9.30;7.18;;;;;;;;;;5039694;28;20289;-75
2022/07/21 06:41:46;;;;;;;11.73;7.20;;;;;;;;;;5041479;28;20029;-73
2022/07/21 06:44:11;;;;;;;11.60;6.43;;;;;;;;;;5039185;28;20048;-74
2022/07/21 06:46:37;;;;;;;20.67;7.15;;;;;;;;;;5041423;28;20039;-73
2022/07/21 06:49:02;;;;;;;9.73;7.20;;;;;;;;;;5038139;28;20029;-74
2022/07/21 06:51:28;;;;;;;9.13;6.45;;;;;;;;;;5039074;28;20305;-73
2022/07/21 06:53:54;;;;;;;12.77;7.38;;;;;;;;;;5041560;28;20048;-73
2022/07/21 06:56:20;;;;;;;7.80;6.63;;;;;;;;;;5039073;28;20117;-76
2022/07/21 06:58:46;;;;;;;10.93;7.03;;;;;;;;;;5040226;28;20063;-71
2022/07/21 07:01:13;;;;;;;9.77;6.68;;;;;;;;;;5041506;28;20078;-78
2022/07/21 07:03:39;;;;;;;12.73;6.38;;;;;;;;;;5026322;28;20605;-75
2022/07/21 07:06:06;;;;;;;9.00;6.45;;;;;;;;;;5042169;28;20025;-75
2022/07/21 07:08:32;;;;;;;9.13;6.32;;;;;;;;;;5042972;28;20554;-72
2022/07/21 07:10:57;;;;;;;7.38;5.78;;;;;;;;;;5043407;28;20044;-75
2022/07/21 07:13:22;;;;;;;8.50;6.03;;;;;;;;;;5045401;28;20396;-73
2022/07/21 07:15:48;;;;;;;7.20;5.68;;;;;;;;;;5060520;28;20025;-77
2022/07/21 07:18:13;;;;;;;7.22;5.20;;;;;;;;;;5042460;28;20537;-72
2022/07/21 07:20:38;;;;;;;6.03;5.35;;;;;;;;;;5039735;28;20702;-76
2022/07/21 07:23:06;;;;;;;8.80;4.88;;;;;;;;;;5043343;28;20074;-77
2022/07/21 07:25:31;;;;;;;5.20;4.70;;;;;;;;;;5043883;28;20134;-74
2022/07/21 07:27:57;;;;;;;6.85;4.70;;;;;;;;;;5042089;28;20494;-76
2022/07/21 07:30:23;;;;;;;6.70;5.38;;;;;;;;;;5042848;28;20255;-77
2022/07/21 07:32:49;;;;;;;7.10;5.53;;;;;;;;;;5041727;28;20245;-77
2022/07/21 07:35:15;;;;;;;6.63;5.07;;;;;;;;;;5032938;28;20259;-73
2022/07/21 07:37:43;;;;;;;5.90;5.30;;;;;;;;;;5043671;28;20037;-75
2022/07/21 07:40:20;;;;;;;5.72;4.80;;;;;;;;;;5042500;28;20123;-76
2022/07/21 07:42:46;;;;;;;6.72;4.95;;;;;;;;;;5035989;28;20029;-75
2022/07/21 07:45:12;;;;;;;5.95;4.75;;;;;;;;;;5043709;28;20039;-75
2022/07/21 07:47:38;;;;;;;6.88;5.15;;;;;;;;;;5043902;28;20036;-75
2022/07/21 07:50:06;;;;;;;7.82;4.78;;;;;;;;;;5043946;28;20024;-75
2022/07/21 07:52:31;;;;;;;7.32;4.45;;;;;;;;;;5043813;28;20032;-71
2022/07/21 07:54:57;;;;;;;5.80;4.07;;;;;;;;;;5026101;28;20029;-75
2022/07/21 07:57:22;;;;;;;6.32;4.20;;;;;;;;;;5042850;28;20248;-76
2022/07/21 07:59:47;;;;;;;6.47;4.32;;;;;;;;;;5042514;28;20027;-76
2022/07/21 08:02:13;;;;;;;5.18;3.80;;;;;;;;;;5044289;28;20029;-74
2022/07/21 08:04:40;;;;;;;5.95;4.38;;;;;;;;;;5041422;28;20028;-75
2022/07/21 08:07:06;;;;;;;8.48;4.28;;;;;;;;;;5047494;28;20121;-76
2022/07/21 08:09:31;;;;;;;5.88;3.95;;;;;;;;;;5043080;28;20116;-77
2022/07/21 08:11:57;;;;;;;7.80;4.35;;;;;;;;;;5041122;28;20044;-76
2022/07/21 08:14:22;;;;;;;7.27;4.37;;;;;;;;;;5043198;28;20029;-75
2022/07/21 08:16:47;;;;;;;7.65;4.45;;;;;;;;;;5044041;28;20417;-73
2022/07/21 08:19:13;;;;;;;4.53;4.07;;;;;;;;;;5042042;28;20025;-75
2022/07/21 08:21:38;;;;;;;5.22;4.10;;;;;;;;;;5030995;28;20029;-72
2022/07/21 08:24:04;;;;;;;8.63;4.37;;;;;;;;;;5043089;28;20100;-77
2022/07/21 08:26:30;;;;;;;6.55;4.30;;;;;;;;;;5042676;28;20273;-76
2022/07/21 08:28:56;;;;;;;8.38;4.57;;;;;;;;;;5042733;28;20367;-74
2022/07/21 08:31:22;;;;;;;9.15;4.30;;;;;;;;;;5043627;28;20498;-77
2022/07/21 08:33:48;;;;;;;5.43;4.10;;;;;;;;;;5043121;28;20036;-79
2022/07/21 08:36:13;;;;;;;4.32;3.92;;;;;;;;;;5041516;28;20045;-73
2022/07/21 08:38:38;;;;;;;4.85;3.72;;;;;;;;;;5041593;28;20029;-73
2022/07/21 08:41:04;;;;;;;5.97;3.80;;;;;;;;;;5043145;28;20017;-73
2022/07/21 08:43:30;;;;;;;5.43;3.92;;;;;;;;;;5044007;28;20771;-74
2022/07/21 08:45:56;;;;;;;5.07;4.03;;;;;;;;;;5042180;28;20379;-71
2022/07/21 08:48:24;;;;;;;4.57;4.05;;;;;;;;;;5038798;28;20044;-71
2022/07/21 08:50:49;;;;;;;6.93;4.20;;;;;;;;;;5042359;28;20036;-77
2022/07/21 08:53:15;;;;;;;5.60;4.47;;;;;;;;;;5028270;28;20358;-79
2022/07/21 08:55:40;;;;;;;4.75;3.90;;;;;;;;;;5041104;28;20024;-78
2022/07/21 08:58:08;;;;;;;4.55;4.10;;;;;;;;;;5041360;28;20592;-74
2022/07/21 09:00:39;;;;;;;7.47;4.25;;;;;;;;;;5041938;28;20218;-74
2022/07/21 09:03:32;;;;;;;5.88;4.13;;;;;;;;;;5042066;28;20029;-75
2022/07/21 09:06:23;;;;;;;4.10;3.80;;;;;;;;;;5038838;28;20669;-76
2022/07/21 09:08:50;;;;;;;;;;;;;;;;;;5031034;28;20052;-75
2022/07/21 09:11:24;;;;;;;7.78;4.30;;;;;;;;;;5043202;28;19927;-73
2022/07/21 09:14:05;;;;;;;6.25;3.95;;;;;;;;;;5042900;28;20650;-74
2022/07/21 09:16:39;;;;;;;6.70;4.07;;;;;;;;;;5042856;28;20107;-73
2022/07/21 09:19:06;;;;;;;5.85;4.13;;;;;;;;;;5042330;28;20122;-73
2022/07/21 09:21:35;;;;;;;6.75;4.05;;;;;;;;;;5041299;28;20425;-71
2022/07/21 09:24:31;;;;;;;6.55;4.00;;;;;;;;;;5040464;28;20025;-72
2022/07/21 09:26:59;;;;;;;9.40;3.92;;;;;;;;;;5039281;28;20394;-72
2022/07/21 09:29:25;;;;;;;6.13;3.95;;;;;;;;;;5041376;28;20462;-72
2022/07/21 09:31:51;;;;;;;12.32;4.60;;;;;;;;;;5042597;28;20051;-70
2022/07/21 09:34:17;;;;;;;6.15;4.43;;;;;;;;;;5041076;28;20296;-71
2022/07/21 09:36:57;;;;;;;6.03;4.72;;;;;;;;;;5033212;28;20016;-74
2022/07/21 09:39:41;;;;;;;7.60;4.68;;;;;;;;;;5038035;28;20047;-70
2022/07/21 09:42:15;;;;;;;5.35;4.85;;;;;;;;;;5030409;28;20127;-73
2022/07/21 09:44:46;;;;;;;7.22;4.82;;;;;;;;;;5034558;28;20431;-76
2022/07/21 09:47:14;;;;;;;6.68;4.20;;;;;;;;;;5040766;28;20025;-72
2022/07/21 09:49:40;;;;;;;5.13;4.35;;;;;;;;;;5041197;28;20025;-73
2022/07/21 09:52:29;;;;;;;7.28;4.40;;;;;;;;;;5040776;28;20033;-71
2022/07/21 09:54:58;;;;;;;5.20;4.63;;;;;;;;;;5037027;28;20322;-71
2022/07/21 09:57:24;;;;;;;7.32;4.57;;;;;;;;;;5040151;28;20132;-70
2022/07/21 09:59:50;;;;;;;8.60;5.00;;;;;;;;;;5040408;28;20075;-71
2022/07/21 10:02:26;;;;;;;5.15;4.50;;;;;;;;;;5037146;28;20429;-71
2022/07/21 10:04:57;;;;;;;6.30;5.00;;;;;;;;;;5042173;28;20111;-78
2022/07/21 10:07:23;;;;;;;;;;;;;;;;;;5041433;28;20025;-73
2022/07/21 10:09:58;;;;;;;5.50;4.97;;;;;;;;;;5039887;28;19923;-75
2022/07/21 10:12:26;;;;;;;7.22;4.45;;;;;;;;;;5016566;28;20087;-75
2022/07/21 10:14:52;;;;;;;5.43;4.45;;;;;;;;;;5041032;28;20472;-77
2022/07/21 10:17:19;;;;;;;4.88;4.38;;;;;;;;;;5041495;28;20100;-73
2022/07/21 10:19:56;;;;;;;8.10;5.13;;;;;;;;;;5039812;28;20515;-72
2022/07/21 10:22:36;;;;;;;6.47;4.60;;;;;;;;;;5040911;28;20025;-74
2022/07/21 10:25:03;;;;;;;6.50;4.55;;;;;;;;;;5041022;28;20025;-76
2022/07/21 10:27:28;;;;;;;5.57;4.30;;;;;;;;;;5040730;28;20514;-74
2022/07/21 10:29:58;;;;;;;6.03;4.90;;;;;;;;;;5041605;28;20048;-71
2022/07/21 10:32:30;;;;;;;6.70;5.07;;;;;;;;;;5043496;28;20182;-73
2022/07/21 10:34:58;;;;;;;6.63;5.43;;;;;;;;;;5043449;28;20491;-72
2022/07/21 10:37:38;;;;;;;7.90;5.10;;;;;;;;;;5030573;28;20068;-76
2022/07/21 10:40:04;;;;;;;12.68;6.45;;;;;;;;;;5021185;28;20029;-75
2022/07/21 10:42:29;;;;;;;8.48;5.93;;;;;;;;;;5021616;28;20310;-73
2022/07/21 10:44:55;;;;;;;8.10;6.05;;;;;;;;;;5020667;28;20067;-71
2022/07/21 10:47:25;;;;;;;6.88;5.68;;;;;;;;;;5021442;28;20030;-73
2022/07/21 10:50:04;;;;;;;7.70;5.60;;;;;;;;;;5021089;28;20308;-70
2022/07/21 10:52:35;;;;;;;8.90;6.10;;;;;;;;;;5021172;28;20013;-70
2022/07/21 10:55:09;;;;;;;6.87;5.83;;;;;;;;;;5020941;28;20071;-70
2022/07/21 10:57:38;;;;;;;5.93;5.30;;;;;;;;;;5020062;28;20736;-70
2022/07/21 11:00:29;;;;;;;9.48;5.40;;;;;;;;;;5020721;28;20399;-70
2022/07/21 11:02:57;;;;;;;6.93;5.88;;;;;;;;;;5046051;28;20169;-71
2022/07/21 11:05:25;;;;;;;8.27;6.13;;;;;;;;;;5021176;28;20053;-69
2022/07/21 11:08:13;;;;;;;7.95;6.20;;;;;;;;;;5022991;28;20037;-71
2022/07/21 11:10:50;;;;;;;6.38;5.72;;;;;;;;;;5033210;28;20029;-71
2022/07/21 11:13:17;;;;;;;6.75;6.05;;;;;;;;;;5039449;28;20053;-71
2022/07/21 11:15:45;;;;;;;7.30;5.63;;;;;;;;;;5040400;28;20237;-70
2022/07/21 11:18:10;;;;;;;7.88;5.55;;;;;;;;;;5041729;28;20031;-72
2022/07/21 11:20:36;;;;;;;7.80;5.70;;;;;;;;;;5042230;28;20025;-70
2022/07/21 11:23:04;;;;;;;8.85;5.30;;;;;;;;;;5060004;28;20421;-70
2022/07/21 11:25:29;;;;;;;12.27;5.75;;;;;;;;;;5060360;28;20044;-73
2022/07/21 11:27:55;;;;;;;8.27;5.75;;;;;;;;;;5060446;28;20062;-71
2022/07/21 11:30:20;;;;;;;6.60;5.78;;;;;;;;;;5060159;28;20482;-71
2022/07/21 11:32:47;;;;;;;7.15;5.68;;;;;;;;;;5061272;28;20025;-74
2022/07/21 11:35:13;;;;;;;6.78;6.18;;;;;;;;;;5060623;28;20074;-70
2022/07/21 11:37:40;;;;;;;6.95;5.70;;;;;;;;;;5059600;28;20425;-76
2022/07/21 11:40:13;;;;;;;9.15;5.97;;;;;;;;;;5061934;28;20058;-72
2022/07/21 11:42:39;;;;;;;7.00;5.60;;;;;;;;;;5059880;28;20052;-72
2022/07/21 11:45:06;;;;;;;6.60;5.90;;;;;;;;;;5040375;28;20102;-75
2022/07/21 11:47:32;;;;;;;6.95;5.50;;;;;;;;;;5042711;28;20028;-70
2022/07/21 11:50:00;;;;;;;6.70;6.07;;;;;;;;;;5042553;28;20020;-74
2022/07/21 11:52:27;;;;;;;9.23;6.03;;;;;;;;;;5044548;28;20021;-73
2022/07/21 11:54:54;;;;;;;7.50;5.35;;;;;;;;;;5044362;28;20542;-74
2022/07/21 11:57:21;;;;;;;8.25;5.78;;;;;;;;;;5041198;28;20033;-75
2022/07/21 11:59:48;;;;;;;7.47;5.47;;;;;;;;;;5042402;28;20072;-76
2022/07/21 12:02:19;;;;;;;6.85;5.90;;;;;;;;;;5043941;28;20489;-76
2022/07/21 12:04:49;;;;;;;10.97;5.60;;;;;;;;;;5023667;28;20033;-74
2022/07/21 12:07:28;;;;;;;6.75;5.50;;;;;;;;;;5043170;28;20392;-69
2022/07/21 12:10:09;;;;;;;7.55;6.00;;;;;;;;;;5022606;28;20040;-72
2022/07/21 12:12:36;;;;;;;7.32;5.53;;;;;;;;;;5042311;28;20376;-72
2022/07/21 12:15:28;;;;;;;8.00;5.80;;;;;;;;;;5043241;28;20086;-70
2022/07/21 12:17:59;;;;;;;7.93;6.28;;;;;;;;;;5023344;28;20021;-70
2022/07/21 12:20:35;;;;;;;10.50;5.90;;;;;;;;;;5037653;28;20095;-70
2022/07/21 12:23:05;;;;;;;7.03;5.18;;;;;;;;;;5043245;28;20056;-70
2022/07/21 12:25:34;;;;;;;7.57;5.97;;;;;;;;;;5043478;28;20033;-71
2022/07/21 12:28:01;;;;;;;9.73;5.95;;;;;;;;;;5042775;28;20056;-76
2022/07/21 12:30:33;;;;;;;8.05;5.70;;;;;;;;;;5041844;28;20041;-71
2022/07/21 12:33:08;;;;;;;7.75;5.32;;;;;;;;;;5041793;28;20115;-70
2022/07/21 12:35:35;;;;;;;8.80;5.72;;;;;;;;;;5040214;28;20390;-72
2022/07/21 12:38:09;;;;;;;7.53;5.40;;;;;;;;;;5041796;28;20052;-71
2022/07/21 12:40:36;;;;;;;7.18;5.50;;;;;;;;;;5043547;28;20229;-71
2022/07/21 12:43:07;;;;;;;6.10;5.35;;;;;;;;;;5042001;28;20151;-72
2022/07/21 12:45:44;;;;;;;5.80;5.15;;;;;;;;;;5042210;28;20033;-73
2022/07/21 12:48:12;;;;;;;5.78;4.95;;;;;;;;;;5040620;28;20031;-70
2022/07/21 12:50:40;;;;;;;7.22;5.22;;;;;;;;;;5044614;28;20032;-72
2022/07/21 12:53:14;;;;;;;8.57;5.18;;;;;;;;;;5046053;28;20013;-72
2022/07/21 12:55:40;;;;;;;7.03;4.60;;;;;;;;;;5045369;28;20439;-68
2022/07/21 12:58:05;;;;;;;6.18;5.20;;;;;;;;;;5041418;28;20029;-76
2022/07/21 13:00:31;;;;;;;7.60;5.22;;;;;;;;;;5046033;28;20076;-75
2022/07/21 13:02:57;;;;;;;7.68;5.65;;;;;;;;;;5044690;28;20132;-73
2022/07/21 13:05:23;;;;;;;6.97;5.20;;;;;;;;;;5045021;28;20032;-74
2022/07/21 13:07:49;;;;;;;6.82;4.88;;;;;;;;;;5045949;28;20052;-74
2022/07/21 13:10:15;;;;;;;7.32;4.88;;;;;;;;;;5045910;28;20029;-75
2022/07/21 13:12:41;;;;;;;6.45;4.63;;;;;;;;;;5043887;28;20487;-75
2022/07/21 13:15:07;;;;;;;6.78;4.63;;;;;;;;;;5080552;22;20059;-69
2022/07/21 13:17:32;;;;;;;7.43;4.65;;;;;;;;;;5064885;28;20382;-71
2022/07/21 13:19:58;;;;;;;7.07;4.50;;;;;;;;;;5065525;28;20024;-73
2022/07/21 13:22:23;;;;;;;7.82;5.15;;;;;;;;;;5065538;28;20406;-69
2022/07/21 13:24:48;;;;;;;6.78;4.65;;;;;;;;;;5065546;28;20082;-73
2022/07/21 13:27:14;;;;;;;6.13;5.00;;;;;;;;;;5065185;28;20032;-70
2022/07/21 13:29:39;;;;;;;5.65;4.50;;;;;;;;;;5062763;28;20486;-70
2022/07/21 13:32:06;;;;;;;6.38;4.80;;;;;;;;;;5065718;28;20401;-74
2022/07/21 13:34:31;;;;;;;7.55;4.53;;;;;;;;;;5065360;28;20028;-67
2022/07/21 13:36:57;;;;;;;5.68;4.55;;;;;;;;;;5064385;28;20028;-68
2022/07/21 13:39:26;;;;;;;5.78;4.28;;;;;;;;;;5062909;28;20028;-70
2022/07/21 13:41:54;;;;;;;5.70;4.45;;;;;;;;;;5058507;28;20012;-69
2022/07/21 13:44:20;;;;;;;6.45;4.90;;;;;;;;;;5063995;28;20408;-66
2022/07/21 13:46:45;;;;;;;5.93;4.47;;;;;;;;;;5063477;28;20024;-70
2022/07/21 13:49:10;;;;;;;5.53;4.43;;;;;;;;;;5063426;28;20029;-67
2022/07/21 13:51:36;;;;;;;6.22;5.00;;;;;;;;;;5062756;28;20024;-71
2022/07/21 13:54:01;;;;;;;5.80;4.90;;;;;;;;;;5064676;28;20028;-74
2022/07/21 13:56:27;;;;;;;5.50;4.93;;;;;;;;;;5062671;28;20397;-72
2022/07/21 13:58:52;;;;;;;6.55;4.82;;;;;;;;;;5063440;28;20034;-72
2022/07/21 14:01:17;;;;;;;5.25;4.70;;;;;;;;;;5064831;28;20402;-72
2022/07/21 14:03:44;;;;;;;9.05;4.75;;;;;;;;;;5062275;28;20036;-71
2022/07/21 14:06:10;;;;;;;6.97;4.95;;;;;;;;;;5062487;28;20043;-76
2022/07/21 14:08:36;;;;;;;6.72;4.88;;;;;;;;;;5063201;28;20577;-72
2022/07/21 14:11:02;;;;;;;5.55;4.97;;;;;;;;;;5063972;28;20170;-66
2022/07/21 14:13:28;;;;;;;5.15;4.65;;;;;;;;;;5063871;28;20060;-76
2022/07/21 14:15:53;;;;;;;5.18;4.68;;;;;;;;;;5063664;28;20101;-71
2022/07/21 14:18:18;;;;;;;6.22;5.40;;;;;;;;;;5071185;28;20027;-70
2022/07/21 14:20:44;;;;;;;5.22;4.72;;;;;;;;;;5069757;28;20101;-69
2022/07/21 14:23:09;;;;;;;5.50;5.00;;;;;;;;;;5063396;28;20310;-73
2022/07/21 14:25:34;;;;;;;5.20;4.65;;;;;;;;;;5062958;28;20031;-71
2022/07/21 14:28:00;;;;;;;5.88;4.43;;;;;;;;;;5061724;28;20220;-68
2022/07/21 14:30:27;;;;;;;6.97;4.32;;;;;;;;;;5063875;28;20097;-67
2022/07/21 14:32:52;;;;;;;4.95;4.30;;;;;;;;;;5063640;28;20029;-69
2022/07/21 14:35:19;;;;;;;6.43;4.90;;;;;;;;;;5063557;28;20169;-69
2022/07/21 14:37:46;;;;;;;4.95;4.53;;;;;;;;;;5061517;28;20085;-71
2022/07/21 14:40:13;;;;;;;6.93;4.85;;;;;;;;;;5061872;28;20032;-71
2022/07/21 14:42:38;;;;;;;6.00;4.93;;;;;;;;;;5063669;28;20020;-69
2022/07/21 14:45:06;;;;;;;5.78;4.95;;;;;;;;;;5062204;28;20036;-69
2022/07/21 14:47:31;;;;;;;5.25;4.60;;;;;;;;;;5065797;28;20101;-71
2022/07/21 14:49:57;;;;;;;5.07;4.57;;;;;;;;;;5064531;28;20090;-73